sensor_id;sensor_type;location;lat;lon;timestamp;temperature;humidity
21019;DHT22;10667;51.056;3.732;2022-12-08T00:01:37;5.60;99.90
21019;DHT22;10667;51.056;3.732;2022-12-08T00:04:04;5.60;99.90
21019;DHT22;10667;51.056;3.732;2022-12-08T00:06:30;5.60;99.90
21019;DHT22;10667;51.056;3.732;2022-12-08T00:09:22;5.60;99.90
21019;DHT22;10667;51.056;3.732;2022-12-08T00:12:11;5.60;99.90
21019;DHT22;10667;51.056;3.732;2022-12-08T00:14:42;5.60;99.90
21019;DHT22;10667;51.056;3.732;2022-12-08T00:17:08;5.60;99.90
21019;DHT22;10667;51.056;3.732;2022-12-08T00:19:35;5.60;99.90
21019;DHT22;10667;51.056;3.732;2022-12-08T00:22:01;5.60;99.90
21019;DHT22;10667;51.056;3.732;2022-12-08T00:24:33;5.70;99.90
21019;DHT22;10667;51.056;3.732;2022-12-08T00:27:00;5.60;99.90
21019;DHT22;10667;51.056;3.732;2022-12-08T00:29:25;5.70;99.90
21019;DHT22;10667;51.056;3.732;2022-12-08T00:31:51;5.70;99.90
21019;DHT22;10667;51.056;3.732;2022-12-08T00:34:17;5.70;99.90
21019;DHT22;10667;51.056;3.732;2022-12-08T00:36:43;5.70;99.90
21019;DHT22;10667;51.056;3.732;2022-12-08T00:39:13;5.70;99.90
21019;DHT22;10667;51.056;3.732;2022-12-08T00:41:39;5.60;99.90
21019;DHT22;10667;51.056;3.732;2022-12-08T00:44:23;5.70;99.90
21019;DHT22;10667;51.056;3.732;2022-12-08T00:46:49;5.70;99.90
21019;DHT22;10667;51.056;3.732;2022-12-08T00:49:15;5.60;99.90
21019;DHT22;10667;51.056;3.732;2022-12-08T00:51:41;5.60;99.90
21019;DHT22;10667;51.056;3.732;2022-12-08T00:54:07;5.60;99.90
21019;DHT22;10667;51.056;3.732;2022-12-08T00:56:33;5.70;99.90
21019;DHT22;10667;51.056;3.732;2022-12-08T00:59:00;5.60;99.90
21019;DHT22;10667;51.056;3.732;2022-12-08T01:01:26;5.60;99.90
21019;DHT22;10667;51.056;3.732;2022-12-08T01:03:52;5.60;99.90
21019;DHT22;10667;51.056;3.732;2022-12-08T01:06:18;5.50;99.90
21019;DHT22;10667;51.056;3.732;2022-12-08T01:08:44;5.50;99.90
21019;DHT22;10667;51.056;3.732;2022-12-08T01:11:12;5.50;99.90
21019;DHT22;10667;51.056;3.732;2022-12-08T01:13:38;5.50;99.90
21019;DHT22;10667;51.056;3.732;2022-12-08T01:16:05;5.50;99.90
21019;DHT22;10667;51.056;3.732;2022-12-08T01:18:30;5.50;99.90
21019;DHT22;10667;51.056;3.732;2022-12-08T01:21:07;5.50;99.90
21019;DHT22;10667;51.056;3.732;2022-12-08T01:23:33;5.50;99.90
21019;DHT22;10667;51.056;3.732;2022-12-08T01:26:03;5.60;99.90
21019;DHT22;10667;51.056;3.732;2022-12-08T01:28:29;5.60;99.90
21019;DHT22;10667;51.056;3.732;2022-12-08T01:30:55;5.70;99.90
21019;DHT22;10667;51.056;3.732;2022-12-08T01:33:21;5.60;99.90
21019;DHT22;10667;51.056;3.732;2022-12-08T01:35:47;5.70;99.90
21019;DHT22;10667;51.056;3.732;2022-12-08T01:38:13;5.70;99.90
21019;DHT22;10667;51.056;3.732;2022-12-08T01:40:39;5.80;99.90
21019;DHT22;10667;51.056;3.732;2022-12-08T01:43:04;5.90;99.90
21019;DHT22;10667;51.056;3.732;2022-12-08T01:45:31;5.90;99.90
21019;DHT22;10667;51.056;3.732;2022-12-08T01:48:04;5.80;99.90
21019;DHT22;10667;51.056;3.732;2022-12-08T01:50:32;5.70;99.90
21019;DHT22;10667;51.056;3.732;2022-12-08T01:53:11;5.70;99.90
21019;DHT22;10667;51.056;3.732;2022-12-08T01:55:42;5.80;99.90
21019;DHT22;10667;51.056;3.732;2022-12-08T01:58:23;5.80;99.90
21019;DHT22;10667;51.056;3.732;2022-12-08T02:00:51;5.80;99.90
21019;DHT22;10667;51.056;3.732;2022-12-08T02:03:22;5.60;99.90
21019;DHT22;10667;51.056;3.732;2022-12-08T02:05:50;5.60;99.90
21019;DHT22;10667;51.056;3.732;2022-12-08T02:08:16;5.50;99.90
21019;DHT22;10667;51.056;3.732;2022-12-08T02:10:42;5.40;99.90
21019;DHT22;10667;51.056;3.732;2022-12-08T02:13:16;5.40;99.90
21019;DHT22;10667;51.056;3.732;2022-12-08T02:18:53;5.30;99.90
21019;DHT22;10667;51.056;3.732;2022-12-08T02:21:40;5.40;99.90
21019;DHT22;10667;51.056;3.732;2022-12-08T02:24:21;5.30;99.90
21019;DHT22;10667;51.056;3.732;2022-12-08T02:30:05;5.20;99.90
21019;DHT22;10667;51.056;3.732;2022-12-08T02:38:04;5.00;99.90
21019;DHT22;10667;51.056;3.732;2022-12-08T02:40:48;5.00;99.90
21019;DHT22;10667;51.056;3.732;2022-12-08T02:43:56;5.00;99.90
21019;DHT22;10667;51.056;3.732;2022-12-08T02:46:29;4.90;99.90
21019;DHT22;10667;51.056;3.732;2022-12-08T02:48:58;4.90;99.90
21019;DHT22;10667;51.056;3.732;2022-12-08T02:51:24;4.90;99.90
21019;DHT22;10667;51.056;3.732;2022-12-08T02:53:50;4.90;99.90
21019;DHT22;10667;51.056;3.732;2022-12-08T02:56:44;5.10;99.90
21019;DHT22;10667;51.056;3.732;2022-12-08T03:04:45;5.30;99.90
21019;DHT22;10667;51.056;3.732;2022-12-08T03:07:31;5.30;99.90
21019;DHT22;10667;51.056;3.732;2022-12-08T03:10:11;5.20;99.90
21019;DHT22;10667;51.056;3.732;2022-12-08T03:12:49;5.30;99.90
21019;DHT22;10667;51.056;3.732;2022-12-08T03:15:18;5.30;99.90
21019;DHT22;10667;51.056;3.732;2022-12-08T03:17:51;5.10;99.90
21019;DHT22;10667;51.056;3.732;2022-12-08T03:20:21;5.20;99.90
21019;DHT22;10667;51.056;3.732;2022-12-08T03:22:50;5.20;99.90
21019;DHT22;10667;51.056;3.732;2022-12-08T03:25:20;5.20;99.90
21019;DHT22;10667;51.056;3.732;2022-12-08T03:27:46;5.20;99.90
21019;DHT22;10667;51.056;3.732;2022-12-08T03:30:12;5.20;99.90
21019;DHT22;10667;51.056;3.732;2022-12-08T03:32:45;5.20;99.90
21019;DHT22;10667;51.056;3.732;2022-12-08T03:35:18;5.10;99.90
21019;DHT22;10667;51.056;3.732;2022-12-08T03:37:45;5.10;99.90
21019;DHT22;10667;51.056;3.732;2022-12-08T03:40:14;5.10;99.90
21019;DHT22;10667;51.056;3.732;2022-12-08T03:42:40;5.10;99.90
21019;DHT22;10667;51.056;3.732;2022-12-08T03:45:06;5.10;99.90
21019;DHT22;10667;51.056;3.732;2022-12-08T03:47:31;5.00;99.90
21019;DHT22;10667;51.056;3.732;2022-12-08T03:49:57;5.10;99.90
21019;DHT22;10667;51.056;3.732;2022-12-08T03:52:23;5.10;99.90
21019;DHT22;10667;51.056;3.732;2022-12-08T03:54:48;5.00;99.90
21019;DHT22;10667;51.056;3.732;2022-12-08T03:57:14;4.90;99.90
21019;DHT22;10667;51.056;3.732;2022-12-08T03:59:40;4.90;99.90
21019;DHT22;10667;51.056;3.732;2022-12-08T04:02:05;4.90;99.90
21019;DHT22;10667;51.056;3.732;2022-12-08T04:04:31;4.80;99.90
21019;DHT22;10667;51.056;3.732;2022-12-08T04:06:56;4.90;99.90
21019;DHT22;10667;51.056;3.732;2022-12-08T04:09:22;4.90;99.90
21019;DHT22;10667;51.056;3.732;2022-12-08T04:11:48;4.80;99.90
21019;DHT22;10667;51.056;3.732;2022-12-08T04:14:14;4.80;99.90
21019;DHT22;10667;51.056;3.732;2022-12-08T04:16:40;4.90;99.90
21019;DHT22;10667;51.056;3.732;2022-12-08T04:19:05;4.90;99.90
21019;DHT22;10667;51.056;3.732;2022-12-08T04:21:31;4.80;99.90
21019;DHT22;10667;51.056;3.732;2022-12-08T04:23:57;4.80;99.90
21019;DHT22;10667;51.056;3.732;2022-12-08T04:26:23;4.70;99.90
21019;DHT22;10667;51.056;3.732;2022-12-08T04:28:49;4.80;99.90
21019;DHT22;10667;51.056;3.732;2022-12-08T04:31:14;4.80;99.90
21019;DHT22;10667;51.056;3.732;2022-12-08T04:33:40;4.80;99.90
21019;DHT22;10667;51.056;3.732;2022-12-08T04:36:06;4.80;99.90
21019;DHT22;10667;51.056;3.732;2022-12-08T04:38:33;4.90;99.90
21019;DHT22;10667;51.056;3.732;2022-12-08T04:40:59;4.90;99.90
21019;DHT22;10667;51.056;3.732;2022-12-08T04:43:25;4.80;99.90
21019;DHT22;10667;51.056;3.732;2022-12-08T04:45:50;4.70;99.90
21019;DHT22;10667;51.056;3.732;2022-12-08T04:48:16;4.70;99.90
21019;DHT22;10667;51.056;3.732;2022-12-08T04:50:43;4.70;99.90
21019;DHT22;10667;51.056;3.732;2022-12-08T04:53:10;4.60;99.90
21019;DHT22;10667;51.056;3.732;2022-12-08T04:55:43;4.60;99.90
21019;DHT22;10667;51.056;3.732;2022-12-08T04:58:14;4.60;99.90
21019;DHT22;10667;51.056;3.732;2022-12-08T05:00:41;4.60;99.90
21019;DHT22;10667;51.056;3.732;2022-12-08T05:03:07;4.60;99.90
21019;DHT22;10667;51.056;3.732;2022-12-08T05:05:33;4.70;99.90
21019;DHT22;10667;51.056;3.732;2022-12-08T05:07:59;4.70;99.90
21019;DHT22;10667;51.056;3.732;2022-12-08T05:10:24;4.80;99.90
21019;DHT22;10667;51.056;3.732;2022-12-08T05:12:50;4.90;99.90
21019;DHT22;10667;51.056;3.732;2022-12-08T05:15:16;4.80;99.90
21019;DHT22;10667;51.056;3.732;2022-12-08T05:17:41;4.80;99.90
21019;DHT22;10667;51.056;3.732;2022-12-08T05:20:07;4.80;99.90
21019;DHT22;10667;51.056;3.732;2022-12-08T05:22:33;4.70;99.90
21019;DHT22;10667;51.056;3.732;2022-12-08T05:24:59;4.70;99.90
21019;DHT22;10667;51.056;3.732;2022-12-08T05:27:24;4.60;99.90
21019;DHT22;10667;51.056;3.732;2022-12-08T05:29:50;4.50;99.90
21019;DHT22;10667;51.056;3.732;2022-12-08T05:32:16;4.50;99.90
21019;DHT22;10667;51.056;3.732;2022-12-08T05:34:42;4.50;99.90
21019;DHT22;10667;51.056;3.732;2022-12-08T05:37:07;4.60;99.90
21019;DHT22;10667;51.056;3.732;2022-12-08T05:39:33;4.50;99.90
21019;DHT22;10667;51.056;3.732;2022-12-08T05:41:59;4.50;99.90
21019;DHT22;10667;51.056;3.732;2022-12-08T05:44:25;4.60;99.90
21019;DHT22;10667;51.056;3.732;2022-12-08T05:46:51;4.70;99.90
21019;DHT22;10667;51.056;3.732;2022-12-08T05:49:17;4.70;99.90
21019;DHT22;10667;51.056;3.732;2022-12-08T05:51:43;4.70;99.90
21019;DHT22;10667;51.056;3.732;2022-12-08T05:54:09;4.70;99.90
21019;DHT22;10667;51.056;3.732;2022-12-08T05:56:35;4.80;99.90
21019;DHT22;10667;51.056;3.732;2022-12-08T05:59:00;4.80;99.90
21019;DHT22;10667;51.056;3.732;2022-12-08T06:01:29;4.70;99.90
21019;DHT22;10667;51.056;3.732;2022-12-08T06:03:57;4.80;99.90
21019;DHT22;10667;51.056;3.732;2022-12-08T06:06:23;4.80;99.90
21019;DHT22;10667;51.056;3.732;2022-12-08T06:08:49;4.80;99.90
21019;DHT22;10667;51.056;3.732;2022-12-08T06:11:24;4.80;99.90
21019;DHT22;10667;51.056;3.732;2022-12-08T06:13:50;4.90;99.90
21019;DHT22;10667;51.056;3.732;2022-12-08T06:16:16;5.00;99.90
21019;DHT22;10667;51.056;3.732;2022-12-08T06:18:42;5.00;99.90
21019;DHT22;10667;51.056;3.732;2022-12-08T06:21:10;5.00;99.90
21019;DHT22;10667;51.056;3.732;2022-12-08T06:23:36;5.00;99.90
21019;DHT22;10667;51.056;3.732;2022-12-08T06:26:08;5.10;99.90
21019;DHT22;10667;51.056;3.732;2022-12-08T06:28:34;5.10;99.90
21019;DHT22;10667;51.056;3.732;2022-12-08T06:31:06;5.10;99.90
21019;DHT22;10667;51.056;3.732;2022-12-08T06:33:32;5.20;99.90
21019;DHT22;10667;51.056;3.732;2022-12-08T06:35:58;5.30;99.90
21019;DHT22;10667;51.056;3.732;2022-12-08T06:38:23;5.40;99.90
21019;DHT22;10667;51.056;3.732;2022-12-08T06:40:53;5.50;99.90
21019;DHT22;10667;51.056;3.732;2022-12-08T06:43:19;5.50;99.90
21019;DHT22;10667;51.056;3.732;2022-12-08T06:45:45;5.30;99.90
21019;DHT22;10667;51.056;3.732;2022-12-08T06:48:10;5.20;99.90
21019;DHT22;10667;51.056;3.732;2022-12-08T06:50:36;5.20;99.90
21019;DHT22;10667;51.056;3.732;2022-12-08T06:53:02;5.30;99.90
21019;DHT22;10667;51.056;3.732;2022-12-08T06:55:28;5.30;99.90
21019;DHT22;10667;51.056;3.732;2022-12-08T06:57:54;5.40;99.90
21019;DHT22;10667;51.056;3.732;2022-12-08T07:00:19;5.30;99.90
21019;DHT22;10667;51.056;3.732;2022-12-08T07:02:45;5.20;99.90
21019;DHT22;10667;51.056;3.732;2022-12-08T07:05:11;5.20;99.90
21019;DHT22;10667;51.056;3.732;2022-12-08T07:07:36;5.30;99.90
21019;DHT22;10667;51.056;3.732;2022-12-08T07:10:02;5.30;99.90
21019;DHT22;10667;51.056;3.732;2022-12-08T07:12:28;5.30;99.90
21019;DHT22;10667;51.056;3.732;2022-12-08T07:14:53;5.30;99.90
21019;DHT22;10667;51.056;3.732;2022-12-08T07:17:19;5.20;99.90
21019;DHT22;10667;51.056;3.732;2022-12-08T07:19:45;5.20;99.90
21019;DHT22;10667;51.056;3.732;2022-12-08T07:22:10;5.20;99.90
21019;DHT22;10667;51.056;3.732;2022-12-08T07:24:36;5.20;99.90
21019;DHT22;10667;51.056;3.732;2022-12-08T07:27:02;5.20;99.90
21019;DHT22;10667;51.056;3.732;2022-12-08T07:29:27;5.30;99.90
21019;DHT22;10667;51.056;3.732;2022-12-08T07:31:53;5.40;99.90
21019;DHT22;10667;51.056;3.732;2022-12-08T07:34:19;5.40;99.90
21019;DHT22;10667;51.056;3.732;2022-12-08T07:36:44;5.40;99.90
21019;DHT22;10667;51.056;3.732;2022-12-08T07:39:10;5.40;99.90
21019;DHT22;10667;51.056;3.732;2022-12-08T07:41:36;5.40;99.90
21019;DHT22;10667;51.056;3.732;2022-12-08T07:44:01;5.50;99.90
21019;DHT22;10667;51.056;3.732;2022-12-08T07:46:28;5.50;99.90
21019;DHT22;10667;51.056;3.732;2022-12-08T07:48:54;5.60;99.90
21019;DHT22;10667;51.056;3.732;2022-12-08T07:51:22;5.50;99.90
21019;DHT22;10667;51.056;3.732;2022-12-08T07:53:49;5.70;99.90
21019;DHT22;10667;51.056;3.732;2022-12-08T07:56:15;5.70;99.90
21019;DHT22;10667;51.056;3.732;2022-12-08T07:58:42;5.70;99.90
21019;DHT22;10667;51.056;3.732;2022-12-08T08:01:27;5.70;99.90
21019;DHT22;10667;51.056;3.732;2022-12-08T08:03:55;5.80;99.90
21019;DHT22;10667;51.056;3.732;2022-12-08T08:06:21;5.80;99.90
21019;DHT22;10667;51.056;3.732;2022-12-08T08:08:47;6.00;99.90
21019;DHT22;10667;51.056;3.732;2022-12-08T08:11:13;6.00;99.90
21019;DHT22;10667;51.056;3.732;2022-12-08T08:13:38;6.00;99.90
21019;DHT22;10667;51.056;3.732;2022-12-08T08:16:06;6.00;99.90
21019;DHT22;10667;51.056;3.732;2022-12-08T08:18:33;6.00;99.90
21019;DHT22;10667;51.056;3.732;2022-12-08T08:20:59;6.00;99.90
21019;DHT22;10667;51.056;3.732;2022-12-08T08:23:25;6.00;99.90
21019;DHT22;10667;51.056;3.732;2022-12-08T08:25:51;6.00;99.90
21019;DHT22;10667;51.056;3.732;2022-12-08T08:28:17;6.10;99.90
21019;DHT22;10667;51.056;3.732;2022-12-08T08:30:45;5.90;99.90
21019;DHT22;10667;51.056;3.732;2022-12-08T08:33:11;5.90;99.90
21019;DHT22;10667;51.056;3.732;2022-12-08T08:35:36;5.90;99.90
21019;DHT22;10667;51.056;3.732;2022-12-08T08:38:02;5.80;99.90
21019;DHT22;10667;51.056;3.732;2022-12-08T08:40:28;5.80;99.90
21019;DHT22;10667;51.056;3.732;2022-12-08T08:42:53;5.80;99.90
21019;DHT22;10667;51.056;3.732;2022-12-08T08:45:19;5.80;99.90
21019;DHT22;10667;51.056;3.732;2022-12-08T08:47:45;5.70;99.90
21019;DHT22;10667;51.056;3.732;2022-12-08T08:50:11;5.70;99.90
21019;DHT22;10667;51.056;3.732;2022-12-08T08:52:37;5.60;99.90
21019;DHT22;10667;51.056;3.732;2022-12-08T08:55:03;5.60;99.90
21019;DHT22;10667;51.056;3.732;2022-12-08T08:57:28;5.60;99.90
21019;DHT22;10667;51.056;3.732;2022-12-08T08:59:54;5.50;99.90
21019;DHT22;10667;51.056;3.732;2022-12-08T09:02:20;5.30;99.90
21019;DHT22;10667;51.056;3.732;2022-12-08T09:04:46;5.30;99.90
21019;DHT22;10667;51.056;3.732;2022-12-08T09:07:12;5.30;99.90
21019;DHT22;10667;51.056;3.732;2022-12-08T09:09:38;5.30;99.90
21019;DHT22;10667;51.056;3.732;2022-12-08T09:12:04;5.20;99.90
21019;DHT22;10667;51.056;3.732;2022-12-08T09:14:30;5.20;99.90
21019;DHT22;10667;51.056;3.732;2022-12-08T09:16:56;5.20;99.90
21019;DHT22;10667;51.056;3.732;2022-12-08T09:19:21;5.40;99.90
21019;DHT22;10667;51.056;3.732;2022-12-08T09:21:47;5.40;99.90
21019;DHT22;10667;51.056;3.732;2022-12-08T09:24:13;5.40;99.90
21019;DHT22;10667;51.056;3.732;2022-12-08T09:26:42;5.30;99.90
21019;DHT22;10667;51.056;3.732;2022-12-08T09:29:09;5.30;99.90
21019;DHT22;10667;51.056;3.732;2022-12-08T09:31:35;5.40;99.90
21019;DHT22;10667;51.056;3.732;2022-12-08T09:34:02;5.40;99.90
21019;DHT22;10667;51.056;3.732;2022-12-08T09:36:28;5.50;99.90
21019;DHT22;10667;51.056;3.732;2022-12-08T09:38:54;5.60;99.90
21019;DHT22;10667;51.056;3.732;2022-12-08T09:46:29;5.70;99.90
21019;DHT22;10667;51.056;3.732;2022-12-08T09:48:58;5.80;99.90
21019;DHT22;10667;51.056;3.732;2022-12-08T09:51:26;5.80;99.90
21019;DHT22;10667;51.056;3.732;2022-12-08T09:54:01;5.80;99.90
21019;DHT22;10667;51.056;3.732;2022-12-08T09:56:32;5.80;99.90
21019;DHT22;10667;51.056;3.732;2022-12-08T09:59:36;5.80;99.90
21019;DHT22;10667;51.056;3.732;2022-12-08T10:01:55;5.80;99.90
21019;DHT22;10667;51.056;3.732;2022-12-08T10:09:59;5.90;99.90
21019;DHT22;10667;51.056;3.732;2022-12-08T10:12:33;5.80;99.90
21019;DHT22;10667;51.056;3.732;2022-12-08T10:17:48;5.80;99.90
21019;DHT22;10667;51.056;3.732;2022-12-08T10:20:21;5.90;99.90
21019;DHT22;10667;51.056;3.732;2022-12-08T10:22:58;5.90;99.90
21019;DHT22;10667;51.056;3.732;2022-12-08T10:25:35;5.90;99.90
21019;DHT22;10667;51.056;3.732;2022-12-08T10:28:02;5.80;99.90
21019;DHT22;10667;51.056;3.732;2022-12-08T10:30:29;5.90;99.90
21019;DHT22;10667;51.056;3.732;2022-12-08T10:32:56;5.90;99.90
21019;DHT22;10667;51.056;3.732;2022-12-08T10:35:22;5.90;99.90
21019;DHT22;10667;51.056;3.732;2022-12-08T10:38:01;5.90;99.90
21019;DHT22;10667;51.056;3.732;2022-12-08T10:40:28;5.80;99.90
21019;DHT22;10667;51.056;3.732;2022-12-08T10:42:58;5.80;99.90
21019;DHT22;10667;51.056;3.732;2022-12-08T10:50:52;5.60;99.90
21019;DHT22;10667;51.056;3.732;2022-12-08T10:53:44;5.60;99.90
21019;DHT22;10667;51.056;3.732;2022-12-08T10:56:16;5.60;99.90
21019;DHT22;10667;51.056;3.732;2022-12-08T10:58:44;5.70;99.90
21019;DHT22;10667;51.056;3.732;2022-12-08T11:03:47;5.70;99.90
21019;DHT22;10667;51.056;3.732;2022-12-08T11:06:34;5.80;99.90
21019;DHT22;10667;51.056;3.732;2022-12-08T11:09:18;5.80;99.90
21019;DHT22;10667;51.056;3.732;2022-12-08T11:11:49;5.90;99.90
21019;DHT22;10667;51.056;3.732;2022-12-08T11:17:12;6.10;99.90
21019;DHT22;10667;51.056;3.732;2022-12-08T11:19:42;6.20;99.90
21019;DHT22;10667;51.056;3.732;2022-12-08T11:24:59;6.50;99.90
21019;DHT22;10667;51.056;3.732;2022-12-08T11:27:26;6.60;99.90
21019;DHT22;10667;51.056;3.732;2022-12-08T11:29:52;6.60;99.90
21019;DHT22;10667;51.056;3.732;2022-12-08T11:32:18;6.60;99.90
21019;DHT22;10667;51.056;3.732;2022-12-08T11:34:48;6.70;99.90
21019;DHT22;10667;51.056;3.732;2022-12-08T11:37:34;6.80;99.90
21019;DHT22;10667;51.056;3.732;2022-12-08T11:40:09;6.70;99.90
21019;DHT22;10667;51.056;3.732;2022-12-08T11:45:35;6.80;99.90
21019;DHT22;10667;51.056;3.732;2022-12-08T11:48:19;6.80;99.90
21019;DHT22;10667;51.056;3.732;2022-12-08T11:50:51;6.90;99.90
21019;DHT22;10667;51.056;3.732;2022-12-08T11:53:36;6.90;99.90
21019;DHT22;10667;51.056;3.732;2022-12-08T11:56:21;7.00;99.90
21019;DHT22;10667;51.056;3.732;2022-12-08T11:58:59;7.00;99.90
21019;DHT22;10667;51.056;3.732;2022-12-08T12:01:25;7.10;99.90
21019;DHT22;10667;51.056;3.732;2022-12-08T12:04:09;7.20;99.90
21019;DHT22;10667;51.056;3.732;2022-12-08T12:09:58;7.60;99.90
21019;DHT22;10667;51.056;3.732;2022-12-08T12:20:51;7.50;99.90
21019;DHT22;10667;51.056;3.732;2022-12-08T12:26:20;7.50;99.90
21019;DHT22;10667;51.056;3.732;2022-12-08T12:31:24;7.30;99.90
21019;DHT22;10667;51.056;3.732;2022-12-08T12:33:54;7.30;99.90
21019;DHT22;10667;51.056;3.732;2022-12-08T12:36:21;7.40;99.90
21019;DHT22;10667;51.056;3.732;2022-12-08T12:38:52;7.30;99.90
21019;DHT22;10667;51.056;3.732;2022-12-08T12:41:36;7.20;99.90
21019;DHT22;10667;51.056;3.732;2022-12-08T12:44:09;7.20;99.90
21019;DHT22;10667;51.056;3.732;2022-12-08T12:57:36;6.40;99.90
21019;DHT22;10667;51.056;3.732;2022-12-08T13:02:38;5.70;99.90
21019;DHT22;10667;51.056;3.732;2022-12-08T13:08:00;5.40;99.90
21019;DHT22;10667;51.056;3.732;2022-12-08T13:10:31;5.40;99.90
21019;DHT22;10667;51.056;3.732;2022-12-08T13:13:17;5.20;99.90
21019;DHT22;10667;51.056;3.732;2022-12-08T13:15:59;5.20;99.90
21019;DHT22;10667;51.056;3.732;2022-12-08T13:18:49;5.20;99.90
21019;DHT22;10667;51.056;3.732;2022-12-08T13:21:19;5.20;99.90
21019;DHT22;10667;51.056;3.732;2022-12-08T13:23:49;5.10;99.90
21019;DHT22;10667;51.056;3.732;2022-12-08T13:26:25;5.00;99.90
21019;DHT22;10667;51.056;3.732;2022-12-08T13:40:14;4.50;99.90
21019;DHT22;10667;51.056;3.732;2022-12-08T13:43:25;4.40;99.90
21019;DHT22;10667;51.056;3.732;2022-12-08T13:45:30;4.30;99.90
21019;DHT22;10667;51.056;3.732;2022-12-08T13:48:13;4.30;99.90
21019;DHT22;10667;51.056;3.732;2022-12-08T13:50:55;4.30;99.90
21019;DHT22;10667;51.056;3.732;2022-12-08T13:53:26;4.50;99.90
21019;DHT22;10667;51.056;3.732;2022-12-08T13:55:59;4.70;99.90
21019;DHT22;10667;51.056;3.732;2022-12-08T13:58:27;4.80;99.90
21019;DHT22;10667;51.056;3.732;2022-12-08T14:01:39;4.70;99.90
21019;DHT22;10667;51.056;3.732;2022-12-08T14:03:58;4.80;99.90
21019;DHT22;10667;51.056;3.732;2022-12-08T14:06:28;4.80;99.90
21019;DHT22;10667;51.056;3.732;2022-12-08T14:08:58;4.80;99.90
21019;DHT22;10667;51.056;3.732;2022-12-08T14:11:35;4.80;99.90
21019;DHT22;10667;51.056;3.732;2022-12-08T14:14:17;4.80;99.90
21019;DHT22;10667;51.056;3.732;2022-12-08T14:16:56;4.80;99.90
21019;DHT22;10667;51.056;3.732;2022-12-08T14:19:27;4.80;99.90
21019;DHT22;10667;51.056;3.732;2022-12-08T14:21:58;4.80;99.90
21019;DHT22;10667;51.056;3.732;2022-12-08T14:24:27;4.90;99.90
21019;DHT22;10667;51.056;3.732;2022-12-08T14:26:58;4.90;99.90
21019;DHT22;10667;51.056;3.732;2022-12-08T14:29:57;4.80;99.90
21019;DHT22;10667;51.056;3.732;2022-12-08T14:32:30;4.80;99.90
21019;DHT22;10667;51.056;3.732;2022-12-08T14:37:36;4.80;99.90
21019;DHT22;10667;51.056;3.732;2022-12-08T14:40:58;4.70;99.90
21019;DHT22;10667;51.056;3.732;2022-12-08T14:42:53;4.70;99.90
21019;DHT22;10667;51.056;3.732;2022-12-08T14:45:20;4.60;99.90
21019;DHT22;10667;51.056;3.732;2022-12-08T14:47:46;4.70;99.90
21019;DHT22;10667;51.056;3.732;2022-12-08T14:50:36;4.80;99.90
21019;DHT22;10667;51.056;3.732;2022-12-08T14:53:02;4.60;99.90
21019;DHT22;10667;51.056;3.732;2022-12-08T14:55:36;4.60;99.90
21019;DHT22;10667;51.056;3.732;2022-12-08T14:58:02;4.50;99.90
21019;DHT22;10667;51.056;3.732;2022-12-08T15:00:29;4.40;99.90
21019;DHT22;10667;51.056;3.732;2022-12-08T15:02:55;4.40;99.90
21019;DHT22;10667;51.056;3.732;2022-12-08T15:05:26;4.40;99.90
21019;DHT22;10667;51.056;3.732;2022-12-08T15:07:58;4.40;99.90
21019;DHT22;10667;51.056;3.732;2022-12-08T15:10:29;4.50;99.90
21019;DHT22;10667;51.056;3.732;2022-12-08T15:15:52;4.50;99.90
21019;DHT22;10667;51.056;3.732;2022-12-08T15:21:06;4.40;99.90
21019;DHT22;10667;51.056;3.732;2022-12-08T15:23:45;4.40;99.90
21019;DHT22;10667;51.056;3.732;2022-12-08T15:26:22;4.40;99.90
21019;DHT22;10667;51.056;3.732;2022-12-08T15:28:49;4.40;99.90
21019;DHT22;10667;51.056;3.732;2022-12-08T15:31:16;4.40;99.90
21019;DHT22;10667;51.056;3.732;2022-12-08T15:33:42;4.50;99.90
21019;DHT22;10667;51.056;3.732;2022-12-08T15:36:08;4.40;99.90
21019;DHT22;10667;51.056;3.732;2022-12-08T15:38:34;4.40;99.90
21019;DHT22;10667;51.056;3.732;2022-12-08T15:41:00;4.40;99.90
21019;DHT22;10667;51.056;3.732;2022-12-08T15:43:26;4.40;99.90
21019;DHT22;10667;51.056;3.732;2022-12-08T15:45:53;4.40;99.90
21019;DHT22;10667;51.056;3.732;2022-12-08T15:48:27;4.40;99.90
21019;DHT22;10667;51.056;3.732;2022-12-08T15:50:54;4.40;99.90
21019;DHT22;10667;51.056;3.732;2022-12-08T15:53:20;4.40;99.90
21019;DHT22;10667;51.056;3.732;2022-12-08T15:55:46;4.30;99.90
21019;DHT22;10667;51.056;3.732;2022-12-08T15:58:24;4.20;99.90
21019;DHT22;10667;51.056;3.732;2022-12-08T16:00:51;4.30;99.90
21019;DHT22;10667;51.056;3.732;2022-12-08T16:03:29;4.20;99.90
21019;DHT22;10667;51.056;3.732;2022-12-08T16:05:56;4.20;99.90
21019;DHT22;10667;51.056;3.732;2022-12-08T16:08:26;4.10;99.90
21019;DHT22;10667;51.056;3.732;2022-12-08T16:10:52;4.30;99.90
21019;DHT22;10667;51.056;3.732;2022-12-08T16:13:20;4.30;99.90
21019;DHT22;10667;51.056;3.732;2022-12-08T16:16:05;4.40;99.90
21019;DHT22;10667;51.056;3.732;2022-12-08T16:18:34;4.30;99.90
21019;DHT22;10667;51.056;3.732;2022-12-08T16:21:01;4.30;99.90
21019;DHT22;10667;51.056;3.732;2022-12-08T16:23:27;4.30;99.90
21019;DHT22;10667;51.056;3.732;2022-12-08T16:25:53;4.20;99.90
21019;DHT22;10667;51.056;3.732;2022-12-08T16:28:19;4.20;99.90
21019;DHT22;10667;51.056;3.732;2022-12-08T16:30:44;4.20;99.90
21019;DHT22;10667;51.056;3.732;2022-12-08T16:33:13;4.20;99.90
21019;DHT22;10667;51.056;3.732;2022-12-08T16:35:40;4.10;99.90
21019;DHT22;10667;51.056;3.732;2022-12-08T16:38:06;4.20;99.90
21019;DHT22;10667;51.056;3.732;2022-12-08T16:40:32;4.20;99.90
21019;DHT22;10667;51.056;3.732;2022-12-08T16:43:18;4.20;99.90
21019;DHT22;10667;51.056;3.732;2022-12-08T16:45:44;4.10;99.90
21019;DHT22;10667;51.056;3.732;2022-12-08T16:48:13;4.10;99.90
21019;DHT22;10667;51.056;3.732;2022-12-08T16:50:43;4.10;99.90
21019;DHT22;10667;51.056;3.732;2022-12-08T16:53:10;4.10;99.90
21019;DHT22;10667;51.056;3.732;2022-12-08T16:55:37;4.00;99.90
21019;DHT22;10667;51.056;3.732;2022-12-08T16:58:04;4.10;99.90
21019;DHT22;10667;51.056;3.732;2022-12-08T17:00:31;4.00;99.90
21019;DHT22;10667;51.056;3.732;2022-12-08T17:03:02;4.10;99.90
21019;DHT22;10667;51.056;3.732;2022-12-08T17:05:28;4.10;99.90
21019;DHT22;10667;51.056;3.732;2022-12-08T17:07:54;4.10;99.90
21019;DHT22;10667;51.056;3.732;2022-12-08T17:10:28;4.00;99.90
21019;DHT22;10667;51.056;3.732;2022-12-08T17:12:55;4.00;99.90
21019;DHT22;10667;51.056;3.732;2022-12-08T17:15:23;3.90;99.90
21019;DHT22;10667;51.056;3.732;2022-12-08T17:17:50;4.00;99.90
21019;DHT22;10667;51.056;3.732;2022-12-08T17:20:20;4.00;99.90
21019;DHT22;10667;51.056;3.732;2022-12-08T17:22:47;4.00;99.90
21019;DHT22;10667;51.056;3.732;2022-12-08T17:25:13;4.00;99.90
21019;DHT22;10667;51.056;3.732;2022-12-08T17:27:39;3.90;99.90
21019;DHT22;10667;51.056;3.732;2022-12-08T17:30:06;3.80;99.90
21019;DHT22;10667;51.056;3.732;2022-12-08T17:32:32;3.80;99.90
21019;DHT22;10667;51.056;3.732;2022-12-08T17:34:58;3.80;99.90
21019;DHT22;10667;51.056;3.732;2022-12-08T17:37:24;3.80;99.90
21019;DHT22;10667;51.056;3.732;2022-12-08T17:39:49;3.80;99.90